Home   Weather   USA   Waukesha   Past weeks
Flag for USA

Past Weather in Waukesha, Wisconsin, USA — Yesterday and Last 2 Weeks

Currently: 34 °F. Partly sunny. (Weather station: Waukesha County Airport, USA). See more current weather

Past Weather in Waukesha — Graph

°F

Waukesha Temperature Yesterday

Maximum temperature yesterday: 34 °F (at 12:15 am)
Minimum temperature yesterday: 21 °F (at 10:55 pm)
Average temperature yesterday: 29 °F

High & Low Weather Summary for the Past Weeks

 TemperatureHumidityPressure
High48 °F (Mar 21, 2:45 pm)100% (Mar 16, 4:45 pm)30.31 "Hg (Mar 16, 4:45 pm)
Low9 °F (Mar 18, 5:45 am)32% (Mar 29, 3:45 pm)29.41 "Hg (Mar 17, 12:15 am)
Average31 °F73%29.99 "Hg
* Reported Mar 15 5:45 pm — Mar 30 5:45 pm, Waukesha. Weather by CustomWeather, © 2023

Note: Actual official high and low records may vary slightly from our data, if they occured in-between our weather recording intervals... More about our weather records

Waukesha Weather History for the Previous 24 Hours

Scroll right to see more
 ConditionsComfort  
Time TempWeatherWind HumidityBarometerVisibility
5:45 pm
Thu, Mar 30
34 °FPartly sunny.12 mph60%30.07 "Hg10 mi
4:45 pm36 °FPartly sunny.10 mph56%30.10 "Hg10 mi
3:45 pm36 °FLight rain. Cloudy.14 mph52%30.12 "Hg7 mi
2:45 pm37 °FSunny.12 mph48%30.13 "Hg10 mi
1:45 pm39 °FSunny.14 mph45%30.18 "Hg10 mi
12:45 pm37 °FSunny.12 mph48%30.20 "Hg10 mi
11:45 am34 °FOvercast.14 mph60%30.25 "Hg10 mi
10:45 am30 °FOvercast.14 mph69%30.27 "Hg10 mi
9:45 am30 °FPartly sunny.12 mph64%30.29 "Hg10 mi
8:45 am28 °FSunny.8 mph69%30.29 "Hg10 mi
7:45 am25 °FSunny.5 mph74%30.30 "Hg10 mi
6:45 am18 °FSunny.5 mph86%30.30 "Hg10 mi
5:45 am19 °FClear.5 mph86%30.30 "Hg10 mi
5:35 am19 °FClear.No wind86%30.30 "Hg10 mi
5:15 am18 °FClear.No wind93%30.29 "Hg10 mi
4:55 am18 °FClear.No wind86%30.29 "Hg10 mi
4:35 am18 °FClear.No wind86%30.28 "Hg10 mi
4:15 am18 °FClear.No wind86%30.28 "Hg10 mi
3:35 am19 °FClear.No wind86%30.29 "Hg10 mi
3:15 am19 °FClear.No wind73%30.29 "Hg10 mi
2:35 am19 °FClear.No wind86%30.29 "Hg10 mi
2:15 am19 °FClear.No wind79%30.30 "Hg10 mi
1:55 am19 °FClear.No wind79%30.30 "Hg10 mi
1:35 am19 °FClear.No wind79%30.30 "Hg10 mi
1:15 am19 °FClear.No wind73%30.30 "Hg10 mi
12:35 am23 °FClear.No wind63%30.30 "Hg10 mi
12:15 am25 °FClear.No wind59%30.30 "Hg10 mi
11:55 pm
Wed, Mar 29
23 °FClear.5 mph63%30.30 "Hg10 mi
11:35 pm25 °FClear.3 mph54%30.30 "Hg10 mi
11:15 pm25 °FClear.5 mph54%30.30 "Hg10 mi
10:55 pm21 °FClear.3 mph63%30.30 "Hg10 mi
10:35 pm25 °FClear.No wind54%30.30 "Hg10 mi
10:15 pm23 °FClear.No wind63%30.30 "Hg10 mi
9:55 pm23 °FClear.No wind68%30.30 "Hg10 mi
9:35 pm25 °FClear.No wind42%30.31 "Hg10 mi
9:15 pm27 °FClear.No wind43%30.31 "Hg10 mi
7:45 pm27 °FClear.No wind39%30.29 "Hg10 mi
Weather by CustomWeather, © 2023

See weather overview